sensor_id;sensor_type;location;lat;lon;timestamp;pressure;altitude;pressure_sealevel;temperature;humidity
11856;BME280;5987;53.140;8.904;2023-07-20T00:01:46;101317.94;;;13.70;100.00
11856;BME280;5987;53.140;8.904;2023-07-20T00:05:09;101324.19;;;13.67;100.00
11856;BME280;5987;53.140;8.904;2023-07-20T00:08:13;101318.72;;;13.72;100.00
11856;BME280;5987;53.140;8.904;2023-07-20T00:11:17;101306.50;;;13.69;100.00
11856;BME280;5987;53.140;8.904;2023-07-20T00:14:21;101308.16;;;13.72;100.00
11856;BME280;5987;53.140;8.904;2023-07-20T00:17:24;101305.59;;;13.70;100.00
11856;BME280;5987;53.140;8.904;2023-07-20T00:20:29;101310.88;;;13.70;100.00
11856;BME280;5987;53.140;8.904;2023-07-20T00:23:33;101314.41;;;13.69;100.00
11856;BME280;5987;53.140;8.904;2023-07-20T00:26:37;101307.88;;;13.58;100.00
11856;BME280;5987;53.140;8.904;2023-07-20T00:29:41;101308.28;;;13.69;100.00
11856;BME280;5987;53.140;8.904;2023-07-20T00:32:45;101308.53;;;13.63;100.00
11856;BME280;5987;53.140;8.904;2023-07-20T00:35:50;101314.94;;;13.57;100.00
11856;BME280;5987;53.140;8.904;2023-07-20T00:38:54;101312.41;;;13.54;100.00
11856;BME280;5987;53.140;8.904;2023-07-20T00:41:58;101311.84;;;13.47;100.00
11856;BME280;5987;53.140;8.904;2023-07-20T00:45:03;101314.59;;;13.44;100.00
11856;BME280;5987;53.140;8.904;2023-07-20T00:48:08;101316.56;;;13.39;100.00
11856;BME280;5987;53.140;8.904;2023-07-20T00:51:13;101316.50;;;13.41;100.00
11856;BME280;5987;53.140;8.904;2023-07-20T00:54:17;101319.84;;;13.44;100.00
11856;BME280;5987;53.140;8.904;2023-07-20T00:57:22;101321.84;;;13.39;100.00
11856;BME280;5987;53.140;8.904;2023-07-20T01:00:27;101323.53;;;13.40;100.00
11856;BME280;5987;53.140;8.904;2023-07-20T01:03:31;101325.19;;;13.43;100.00
11856;BME280;5987;53.140;8.904;2023-07-20T01:06:47;101332.72;;;13.30;100.00
11856;BME280;5987;53.140;8.904;2023-07-20T01:10:03;101334.09;;;13.18;100.00
11856;BME280;5987;53.140;8.904;2023-07-20T01:13:10;101337.31;;;13.25;100.00
11856;BME280;5987;53.140;8.904;2023-07-20T01:16:14;101344.56;;;13.19;100.00
11856;BME280;5987;53.140;8.904;2023-07-20T01:19:18;101336.66;;;13.19;100.00
11856;BME280;5987;53.140;8.904;2023-07-20T01:26:38;101349.28;;;13.11;100.00
11856;BME280;5987;53.140;8.904;2023-07-20T01:30:08;101341.31;;;13.13;100.00
11856;BME280;5987;53.140;8.904;2023-07-20T01:33:18;101348.31;;;13.14;100.00
11856;BME280;5987;53.140;8.904;2023-07-20T01:36:26;101345.72;;;13.12;100.00
11856;BME280;5987;53.140;8.904;2023-07-20T01:39:32;101345.72;;;13.12;100.00
11856;BME280;5987;53.140;8.904;2023-07-20T01:42:37;101346.31;;;13.19;100.00
11856;BME280;5987;53.140;8.904;2023-07-20T01:45:40;101344.50;;;13.21;100.00
11856;BME280;5987;53.140;8.904;2023-07-20T01:48:45;101336.53;;;13.23;100.00
11856;BME280;5987;53.140;8.904;2023-07-20T01:51:49;101337.38;;;13.23;100.00
11856;BME280;5987;53.140;8.904;2023-07-20T01:54:52;101339.03;;;13.26;100.00
11856;BME280;5987;53.140;8.904;2023-07-20T01:57:56;101339.34;;;13.18;100.00
11856;BME280;5987;53.140;8.904;2023-07-20T02:01:01;101337.13;;;13.07;100.00
11856;BME280;5987;53.140;8.904;2023-07-20T02:04:06;101340.56;;;13.09;100.00
11856;BME280;5987;53.140;8.904;2023-07-20T02:07:10;101340.47;;;13.12;100.00
11856;BME280;5987;53.140;8.904;2023-07-20T02:10:14;101344.78;;;13.13;100.00
11856;BME280;5987;53.140;8.904;2023-07-20T02:13:18;101344.72;;;13.15;100.00
11856;BME280;5987;53.140;8.904;2023-07-20T02:16:21;101337.88;;;13.11;100.00
11856;BME280;5987;53.140;8.904;2023-07-20T02:19:29;101340.56;;;13.09;100.00
11856;BME280;5987;53.140;8.904;2023-07-20T02:22:33;101342.97;;;13.15;100.00
11856;BME280;5987;53.140;8.904;2023-07-20T02:25:37;101342.16;;;13.13;100.00
11856;BME280;5987;53.140;8.904;2023-07-20T02:28:41;101331.94;;;13.06;100.00
11856;BME280;5987;53.140;8.904;2023-07-20T02:31:45;101337.19;;;13.06;100.00
11856;BME280;5987;53.140;8.904;2023-07-20T02:34:50;101333.34;;;13.14;100.00
11856;BME280;5987;53.140;8.904;2023-07-20T02:37:54;101345.72;;;13.12;100.00
11856;BME280;5987;53.140;8.904;2023-07-20T02:40:58;101340.69;;;13.06;100.00
11856;BME280;5987;53.140;8.904;2023-07-20T02:44:01;101343.19;;;13.09;100.00
11856;BME280;5987;53.140;8.904;2023-07-20T02:47:06;101355.34;;;13.13;100.00
11856;BME280;5987;53.140;8.904;2023-07-20T02:50:11;101358.22;;;13.07;100.00
11856;BME280;5987;53.140;8.904;2023-07-20T02:53:16;101357.31;;;13.08;100.00
11856;BME280;5987;53.140;8.904;2023-07-20T02:56:20;101358.91;;;13.12;100.00
11856;BME280;5987;53.140;8.904;2023-07-20T02:59:25;101361.28;;;13.18;100.00
11856;BME280;5987;53.140;8.904;2023-07-20T03:02:30;101352.88;;;13.09;100.00
11856;BME280;5987;53.140;8.904;2023-07-20T03:05:35;101361.44;;;13.15;100.00
11856;BME280;5987;53.140;8.904;2023-07-20T03:08:40;101366.88;;;13.11;100.00
11856;BME280;5987;53.140;8.904;2023-07-20T03:11:50;101363.50;;;13.07;100.00
11856;BME280;5987;53.140;8.904;2023-07-20T03:14:53;101365.38;;;13.03;100.00
11856;BME280;5987;53.140;8.904;2023-07-20T03:17:59;101356.00;;;12.96;100.00
11856;BME280;5987;53.140;8.904;2023-07-20T03:21:04;101354.19;;;12.98;100.00
11856;BME280;5987;53.140;8.904;2023-07-20T03:24:08;101352.50;;;12.96;100.00
11856;BME280;5987;53.140;8.904;2023-07-20T03:27:12;101356.97;;;12.94;100.00
11856;BME280;5987;53.140;8.904;2023-07-20T03:30:15;101351.19;;;12.84;100.00
11856;BME280;5987;53.140;8.904;2023-07-20T03:33:19;101357.34;;;12.84;100.00
11856;BME280;5987;53.140;8.904;2023-07-20T03:36:24;101348.41;;;12.89;100.00
11856;BME280;5987;53.140;8.904;2023-07-20T03:39:27;101348.53;;;12.85;100.00
11856;BME280;5987;53.140;8.904;2023-07-20T03:42:31;101357.09;;;12.91;100.00
11856;BME280;5987;53.140;8.904;2023-07-20T03:45:35;101360.53;;;12.93;100.00
11856;BME280;5987;53.140;8.904;2023-07-20T03:48:38;101362.09;;;12.98;100.00
11856;BME280;5987;53.140;8.904;2023-07-20T03:51:43;101369.88;;;13.01;100.00
11856;BME280;5987;53.140;8.904;2023-07-20T03:54:46;101370.72;;;13.02;100.00
11856;BME280;5987;53.140;8.904;2023-07-20T03:57:50;101369.63;;;13.08;100.00
11856;BME280;5987;53.140;8.904;2023-07-20T04:00:54;101375.84;;;13.05;100.00
11856;BME280;5987;53.140;8.904;2023-07-20T04:03:57;101374.16;;;13.04;100.00
11856;BME280;5987;53.140;8.904;2023-07-20T04:07:02;101378.50;;;13.05;100.00
11856;BME280;5987;53.140;8.904;2023-07-20T04:10:08;101375.84;;;13.05;100.00
11856;BME280;5987;53.140;8.904;2023-07-20T04:13:11;101377.31;;;13.14;100.00
11856;BME280;5987;53.140;8.904;2023-07-20T04:16:15;101374.34;;;13.21;100.00
11856;BME280;5987;53.140;8.904;2023-07-20T04:19:19;101375.16;;;13.24;100.00
11856;BME280;5987;53.140;8.904;2023-07-20T04:22:24;101368.94;;;13.25;100.00
11856;BME280;5987;53.140;8.904;2023-07-20T04:25:27;101370.50;;;13.30;100.00
11856;BME280;5987;53.140;8.904;2023-07-20T04:28:31;101380.06;;;13.33;100.00
11856;BME280;5987;53.140;8.904;2023-07-20T04:31:35;101381.09;;;13.29;100.00
11856;BME280;5987;53.140;8.904;2023-07-20T04:34:39;101381.97;;;13.29;100.00
11856;BME280;5987;53.140;8.904;2023-07-20T04:37:44;101380.25;;;13.28;100.00
11856;BME280;5987;53.140;8.904;2023-07-20T04:40:49;101381.91;;;13.31;100.00
11856;BME280;5987;53.140;8.904;2023-07-20T04:43:53;101381.09;;;13.29;100.00
11856;BME280;5987;53.140;8.904;2023-07-20T04:46:57;101382.63;;;13.34;100.00
11856;BME280;5987;53.140;8.904;2023-07-20T04:50:00;101377.34;;;13.36;100.00
11856;BME280;5987;53.140;8.904;2023-07-20T04:53:05;101376.41;;;13.37;100.00
11856;BME280;5987;53.140;8.904;2023-07-20T04:56:09;101383.28;;;13.41;100.00
11856;BME280;5987;53.140;8.904;2023-07-20T04:59:13;101380.09;;;13.55;100.00
11856;BME280;5987;53.140;8.904;2023-07-20T05:02:16;101374.88;;;13.96;100.00
11856;BME280;5987;53.140;8.904;2023-07-20T05:05:20;101369.94;;;14.09;100.00
11856;BME280;5987;53.140;8.904;2023-07-20T05:08:25;101359.25;;;14.12;100.00
11856;BME280;5987;53.140;8.904;2023-07-20T05:11:29;101355.38;;;14.40;100.00
11856;BME280;5987;53.140;8.904;2023-07-20T05:14:33;101355.81;;;14.31;100.00
11856;BME280;5987;53.140;8.904;2023-07-20T05:17:36;101360.97;;;13.93;100.00
11856;BME280;5987;53.140;8.904;2023-07-20T05:20:41;101358.38;;;14.12;100.00
11856;BME280;5987;53.140;8.904;2023-07-20T05:23:46;101356.06;;;14.24;100.00
11856;BME280;5987;53.140;8.904;2023-07-20T05:26:49;101355.75;;;14.51;100.00
11856;BME280;5987;53.140;8.904;2023-07-20T05:29:53;101349.88;;;14.65;100.00
11856;BME280;5987;53.140;8.904;2023-07-20T05:32:56;101362.47;;;14.79;100.00
11856;BME280;5987;53.140;8.904;2023-07-20T05:36:00;101356.59;;;14.72;100.00
11856;BME280;5987;53.140;8.904;2023-07-20T05:39:05;101358.13;;;14.78;100.00
11856;BME280;5987;53.140;8.904;2023-07-20T05:42:09;101359.97;;;15.14;100.00
11856;BME280;5987;53.140;8.904;2023-07-20T05:45:12;101361.03;;;15.10;100.00
11856;BME280;5987;53.140;8.904;2023-07-20T05:48:16;101357.47;;;15.30;100.00
11856;BME280;5987;53.140;8.904;2023-07-20T05:51:19;101357.88;;;15.57;100.00
11856;BME280;5987;53.140;8.904;2023-07-20T05:54:25;101361.22;;;15.80;100.00
11856;BME280;5987;53.140;8.904;2023-07-20T05:57:29;101358.53;;;15.26;100.00
11856;BME280;5987;53.140;8.904;2023-07-20T06:00:32;101357.31;;;15.87;100.00
11856;BME280;5987;53.140;8.904;2023-07-20T06:03:36;101360.69;;;15.72;100.00
11856;BME280;5987;53.140;8.904;2023-07-20T06:06:40;101358.56;;;15.80;100.00
11856;BME280;5987;53.140;8.904;2023-07-20T06:09:45;101359.97;;;15.87;100.00
11856;BME280;5987;53.140;8.904;2023-07-20T06:12:49;101348.34;;;15.90;100.00
11856;BME280;5987;53.140;8.904;2023-07-20T06:15:52;101362.75;;;15.84;100.00
11856;BME280;5987;53.140;8.904;2023-07-20T06:18:59;101356.53;;;16.03;100.00
11856;BME280;5987;53.140;8.904;2023-07-20T06:22:03;101359.56;;;16.12;100.00
11856;BME280;5987;53.140;8.904;2023-07-20T06:25:10;101352.31;;;16.50;100.00
11856;BME280;5987;53.140;8.904;2023-07-20T06:28:14;101354.25;;;16.79;100.00
11856;BME280;5987;53.140;8.904;2023-07-20T06:31:17;101345.16;;;16.52;100.00
11856;BME280;5987;53.140;8.904;2023-07-20T06:34:21;101365.66;;;16.48;100.00
11856;BME280;5987;53.140;8.904;2023-07-20T06:37:25;101364.78;;;16.32;100.00
11856;BME280;5987;53.140;8.904;2023-07-20T06:40:30;101366.56;;;16.80;100.00
11856;BME280;5987;53.140;8.904;2023-07-20T06:43:34;101363.25;;;16.77;100.00
11856;BME280;5987;53.140;8.904;2023-07-20T06:46:41;101368.00;;;16.37;100.00
11856;BME280;5987;53.140;8.904;2023-07-20T06:49:44;101372.28;;;15.88;100.00
11856;BME280;5987;53.140;8.904;2023-07-20T06:52:48;101363.25;;;16.43;100.00
11856;BME280;5987;53.140;8.904;2023-07-20T06:55:53;101362.31;;;16.44;100.00
11856;BME280;5987;53.140;8.904;2023-07-20T06:58:56;101367.72;;;16.43;100.00
11856;BME280;5987;53.140;8.904;2023-07-20T07:02:00;101364.56;;;17.02;100.00
11856;BME280;5987;53.140;8.904;2023-07-20T07:05:04;101360.72;;;16.91;100.00
11856;BME280;5987;53.140;8.904;2023-07-20T07:08:11;101365.25;;;17.21;100.00
11856;BME280;5987;53.140;8.904;2023-07-20T07:11:16;101372.44;;;17.19;100.00
11856;BME280;5987;53.140;8.904;2023-07-20T07:14:20;101367.22;;;17.02;100.00
11856;BME280;5987;53.140;8.904;2023-07-20T07:17:25;101360.78;;;16.56;100.00
11856;BME280;5987;53.140;8.904;2023-07-20T07:20:29;101371.38;;;16.74;100.00
11856;BME280;5987;53.140;8.904;2023-07-20T07:23:33;101374.56;;;17.44;100.00
11856;BME280;5987;53.140;8.904;2023-07-20T07:26:38;101369.91;;;17.48;100.00
11856;BME280;5987;53.140;8.904;2023-07-20T07:29:42;101370.53;;;17.53;100.00
11856;BME280;5987;53.140;8.904;2023-07-20T07:32:47;101376.00;;;17.50;100.00
11856;BME280;5987;53.140;8.904;2023-07-20T07:35:51;101371.44;;;18.29;100.00
11856;BME280;5987;53.140;8.904;2023-07-20T07:38:54;101378.44;;;17.39;100.00
11856;BME280;5987;53.140;8.904;2023-07-20T07:42:03;101377.88;;;17.48;100.00
11856;BME280;5987;53.140;8.904;2023-07-20T07:45:10;101376.97;;;17.01;100.00
11856;BME280;5987;53.140;8.904;2023-07-20T07:48:13;101376.56;;;17.25;100.00
11856;BME280;5987;53.140;8.904;2023-07-20T07:51:17;101380.75;;;17.91;100.00
11856;BME280;5987;53.140;8.904;2023-07-20T07:54:21;101386.72;;;17.79;100.00
11856;BME280;5987;53.140;8.904;2023-07-20T07:57:26;101387.16;;;17.57;100.00
11856;BME280;5987;53.140;8.904;2023-07-20T08:00:30;101395.22;;;17.55;100.00
11856;BME280;5987;53.140;8.904;2023-07-20T08:03:33;101387.16;;;17.57;100.00
11856;BME280;5987;53.140;8.904;2023-07-20T08:06:37;101387.84;;;16.96;100.00
11856;BME280;5987;53.140;8.904;2023-07-20T08:09:41;101387.63;;;16.84;100.00
11856;BME280;5987;53.140;8.904;2023-07-20T08:12:46;101391.03;;;16.86;100.00
11856;BME280;5987;53.140;8.904;2023-07-20T08:15:51;101396.41;;;17.18;100.00
11856;BME280;5987;53.140;8.904;2023-07-20T08:18:55;101387.28;;;17.70;100.00
11856;BME280;5987;53.140;8.904;2023-07-20T08:21:58;101395.53;;;17.17;100.00
11856;BME280;5987;53.140;8.904;2023-07-20T08:25:02;101386.34;;;17.71;100.00
11856;BME280;5987;53.140;8.904;2023-07-20T08:28:08;101394.06;;;18.06;100.00
11856;BME280;5987;53.140;8.904;2023-07-20T08:31:11;101391.03;;;17.81;100.00
11856;BME280;5987;53.140;8.904;2023-07-20T08:34:15;101380.53;;;18.54;100.00
11856;BME280;5987;53.140;8.904;2023-07-20T08:37:32;101388.22;;;19.16;100.00
11856;BME280;5987;53.140;8.904;2023-07-20T08:40:41;101394.13;;;18.49;100.00
11856;BME280;5987;53.140;8.904;2023-07-20T08:43:47;101390.91;;;18.58;100.00
11856;BME280;5987;53.140;8.904;2023-07-20T08:46:52;101390.56;;;18.93;100.00
11856;BME280;5987;53.140;8.904;2023-07-20T08:49:58;101399.25;;;19.24;100.00
11856;BME280;5987;53.140;8.904;2023-07-20T08:53:04;101402.16;;;17.88;100.00
11856;BME280;5987;53.140;8.904;2023-07-20T08:56:10;101407.03;;;18.26;100.00
11856;BME280;5987;53.140;8.904;2023-07-20T08:59:17;101393.94;;;18.95;100.00
11856;BME280;5987;53.140;8.904;2023-07-20T09:02:25;101408.09;;;18.38;100.00
11856;BME280;5987;53.140;8.904;2023-07-20T09:05:30;101405.25;;;18.41;100.00
11856;BME280;5987;53.140;8.904;2023-07-20T09:08:38;101402.00;;;19.23;100.00
11856;BME280;5987;53.140;8.904;2023-07-20T09:11:42;101394.16;;;18.92;100.00
11856;BME280;5987;53.140;8.904;2023-07-20T09:14:47;101395.88;;;18.93;100.00
11856;BME280;5987;53.140;8.904;2023-07-20T09:17:52;101393.66;;;18.71;100.00
11856;BME280;5987;53.140;8.904;2023-07-20T09:21:02;101402.88;;;18.94;100.00
11856;BME280;5987;53.140;8.904;2023-07-20T09:24:07;101403.31;;;19.30;100.00
11856;BME280;5987;53.140;8.904;2023-07-20T09:27:11;101398.91;;;19.01;100.00
11856;BME280;5987;53.140;8.904;2023-07-20T09:30:17;101389.16;;;19.15;100.00
11856;BME280;5987;53.140;8.904;2023-07-20T09:33:22;101393.28;;;18.63;100.00
11856;BME280;5987;53.140;8.904;2023-07-20T09:36:29;101398.34;;;19.65;100.00
11856;BME280;5987;53.140;8.904;2023-07-20T09:39:43;101390.88;;;19.16;100.00
11856;BME280;5987;53.140;8.904;2023-07-20T09:42:53;101395.25;;;19.17;100.00
11856;BME280;5987;53.140;8.904;2023-07-20T09:46:06;101394.81;;;18.96;100.00
11856;BME280;5987;53.140;8.904;2023-07-20T09:49:10;101399.66;;;19.31;100.00
11856;BME280;5987;53.140;8.904;2023-07-20T09:52:17;101397.84;;;18.75;100.00
11856;BME280;5987;53.140;8.904;2023-07-20T09:55:26;101410.69;;;18.09;100.00
11856;BME280;5987;53.140;8.904;2023-07-20T09:58:33;101401.81;;;18.39;100.00
11856;BME280;5987;53.140;8.904;2023-07-20T10:01:42;101411.56;;;17.47;100.00
11856;BME280;5987;53.140;8.904;2023-07-20T10:04:50;101413.50;;;17.44;100.00
11856;BME280;5987;53.140;8.904;2023-07-20T10:07:56;101419.16;;;17.06;100.00
11856;BME280;5987;53.140;8.904;2023-07-20T10:11:05;101424.78;;;16.84;100.00
11856;BME280;5987;53.140;8.904;2023-07-20T10:14:18;101418.94;;;16.59;100.00
11856;BME280;5987;53.140;8.904;2023-07-20T10:17:25;101423.28;;;16.44;100.00
11856;BME280;5987;53.140;8.904;2023-07-20T10:20:31;101419.75;;;16.61;100.00
11856;BME280;5987;53.140;8.904;2023-07-20T10:23:38;101417.31;;;17.08;100.00
11856;BME280;5987;53.140;8.904;2023-07-20T10:26:42;101417.91;;;17.29;100.00
11856;BME280;5987;53.140;8.904;2023-07-20T10:29:47;101415.88;;;17.96;100.00
11856;BME280;5987;53.140;8.904;2023-07-20T10:32:53;101412.78;;;17.88;100.00
11856;BME280;5987;53.140;8.904;2023-07-20T10:36:00;101410.91;;;18.35;100.00
11856;BME280;5987;53.140;8.904;2023-07-20T10:39:04;101409.28;;;18.18;100.00
11856;BME280;5987;53.140;8.904;2023-07-20T10:42:10;101392.06;;;18.40;100.00
11856;BME280;5987;53.140;8.904;2023-07-20T10:45:39;101393.56;;;18.73;100.00
11856;BME280;5987;53.140;8.904;2023-07-20T10:49:04;101380.09;;;19.32;100.00
11856;BME280;5987;53.140;8.904;2023-07-20T10:52:11;101383.34;;;19.50;100.00
11856;BME280;5987;53.140;8.904;2023-07-20T10:55:15;101383.09;;;18.98;100.00
11856;BME280;5987;53.140;8.904;2023-07-20T10:58:19;101381.69;;;19.34;100.00
11856;BME280;5987;53.140;8.904;2023-07-20T11:01:30;101382.75;;;18.61;100.00
11856;BME280;5987;53.140;8.904;2023-07-20T11:04:40;101376.97;;;19.25;100.00
11856;BME280;5987;53.140;8.904;2023-07-20T11:07:44;101390.09;;;19.83;100.00
11856;BME280;5987;53.140;8.904;2023-07-20T11:11:21;101382.63;;;19.48;100.00
11856;BME280;5987;53.140;8.904;2023-07-20T11:14:26;101388.47;;;19.53;100.00
11856;BME280;5987;53.140;8.904;2023-07-20T11:17:31;101394.16;;;19.34;100.00
11856;BME280;5987;53.140;8.904;2023-07-20T11:20:37;101397.00;;;19.03;100.00
11856;BME280;5987;53.140;8.904;2023-07-20T11:23:41;101398.22;;;18.98;100.00
11856;BME280;5987;53.140;8.904;2023-07-20T11:26:49;101397.63;;;19.49;100.00
11856;BME280;5987;53.140;8.904;2023-07-20T11:29:53;101394.72;;;20.19;100.00
11856;BME280;5987;53.140;8.904;2023-07-20T11:32:57;101392.50;;;20.26;100.00
11856;BME280;5987;53.140;8.904;2023-07-20T11:36:02;101397.03;;;19.58;100.00
11856;BME280;5987;53.140;8.904;2023-07-20T11:39:29;101410.00;;;18.06;100.00
11856;BME280;5987;53.140;8.904;2023-07-20T11:42:34;101409.75;;;17.64;100.00
11856;BME280;5987;53.140;8.904;2023-07-20T11:45:41;101411.31;;;17.36;100.00
11856;BME280;5987;53.140;8.904;2023-07-20T11:48:45;101418.94;;;17.26;100.00
11856;BME280;5987;53.140;8.904;2023-07-20T11:51:50;101416.94;;;17.14;100.00
11856;BME280;5987;53.140;8.904;2023-07-20T11:54:54;101404.97;;;16.91;100.00
11856;BME280;5987;53.140;8.904;2023-07-20T11:58:02;101414.28;;;16.64;100.00
11856;BME280;5987;53.140;8.904;2023-07-20T12:01:06;101413.06;;;16.88;100.00
11856;BME280;5987;53.140;8.904;2023-07-20T12:04:10;101410.88;;;16.62;100.00
11856;BME280;5987;53.140;8.904;2023-07-20T12:07:15;101398.38;;;16.98;100.00
11856;BME280;5987;53.140;8.904;2023-07-20T12:10:25;101413.69;;;17.41;100.00
11856;BME280;5987;53.140;8.904;2023-07-20T12:13:38;101412.56;;;17.45;100.00
11856;BME280;5987;53.140;8.904;2023-07-20T12:16:42;101407.50;;;17.56;100.00
11856;BME280;5987;53.140;8.904;2023-07-20T12:19:45;101399.50;;;17.42;100.00
11856;BME280;5987;53.140;8.904;2023-07-20T12:22:50;101404.16;;;17.69;100.00
11856;BME280;5987;53.140;8.904;2023-07-20T12:25:57;101411.50;;;17.33;100.00
11856;BME280;5987;53.140;8.904;2023-07-20T12:29:01;101411.75;;;17.75;100.00
11856;BME280;5987;53.140;8.904;2023-07-20T12:32:06;101414.41;;;18.21;100.00
11856;BME280;5987;53.140;8.904;2023-07-20T12:35:10;101398.50;;;18.50;100.00
11856;BME280;5987;53.140;8.904;2023-07-20T12:38:18;101398.50;;;18.64;100.00
11856;BME280;5987;53.140;8.904;2023-07-20T12:41:21;101404.00;;;18.47;100.00
11856;BME280;5987;53.140;8.904;2023-07-20T12:44:25;101407.31;;;18.36;100.00
11856;BME280;5987;53.140;8.904;2023-07-20T12:47:29;101405.44;;;17.93;100.00
11856;BME280;5987;53.140;8.904;2023-07-20T12:50:33;101406.38;;;17.92;100.00
11856;BME280;5987;53.140;8.904;2023-07-20T12:53:38;101398.31;;;17.94;100.00
11856;BME280;5987;53.140;8.904;2023-07-20T12:56:42;101389.94;;;18.30;100.00
11856;BME280;5987;53.140;8.904;2023-07-20T12:59:49;101390.88;;;18.15;100.00
11856;BME280;5987;53.140;8.904;2023-07-20T13:02:52;101393.72;;;18.12;100.00
11856;BME280;5987;53.140;8.904;2023-07-20T13:05:59;101385.00;;;18.67;100.00
11856;BME280;5987;53.140;8.904;2023-07-20T13:09:07;101373.97;;;18.30;100.00
11856;BME280;5987;53.140;8.904;2023-07-20T13:12:11;101377.97;;;18.52;100.00
11856;BME280;5987;53.140;8.904;2023-07-20T13:15:15;101375.34;;;18.66;100.00
11856;BME280;5987;53.140;8.904;2023-07-20T13:18:18;101370.69;;;18.56;100.00
11856;BME280;5987;53.140;8.904;2023-07-20T13:21:22;101370.19;;;18.78;100.00
11856;BME280;5987;53.140;8.904;2023-07-20T13:24:29;101373.91;;;18.75;100.00
11856;BME280;5987;53.140;8.904;2023-07-20T13:27:33;101368.97;;;18.83;100.00
11856;BME280;5987;53.140;8.904;2023-07-20T13:30:36;101381.22;;;18.86;100.00
11856;BME280;5987;53.140;8.904;2023-07-20T13:33:42;101385.19;;;19.08;100.00
11856;BME280;5987;53.140;8.904;2023-07-20T13:36:45;101388.06;;;18.90;100.00
11856;BME280;5987;53.140;8.904;2023-07-20T13:39:52;101386.22;;;19.47;100.00
11856;BME280;5987;53.140;8.904;2023-07-20T13:42:55;101383.22;;;19.11;100.00
11856;BME280;5987;53.140;8.904;2023-07-20T13:46:00;101375.84;;;19.42;100.00
11856;BME280;5987;53.140;8.904;2023-07-20T13:49:04;101379.16;;;20.13;100.00
11856;BME280;5987;53.140;8.904;2023-07-20T13:52:14;101388.88;;;20.01;100.00
11856;BME280;5987;53.140;8.904;2023-07-20T13:55:22;101391.06;;;19.67;100.00
11856;BME280;5987;53.140;8.904;2023-07-20T13:58:28;101392.19;;;19.23;100.00
11856;BME280;5987;53.140;8.904;2023-07-20T14:01:33;101393.53;;;19.16;100.00
11856;BME280;5987;53.140;8.904;2023-07-20T14:04:40;101399.44;;;18.20;100.00
11856;BME280;5987;53.140;8.904;2023-07-20T14:07:43;101399.97;;;18.25;100.00
11856;BME280;5987;53.140;8.904;2023-07-20T14:10:49;101415.16;;;18.09;100.00
11856;BME280;5987;53.140;8.904;2023-07-20T14:13:55;101409.88;;;18.23;100.00
11856;BME280;5987;53.140;8.904;2023-07-20T14:17:00;101403.25;;;18.45;100.00
11856;BME280;5987;53.140;8.904;2023-07-20T14:20:05;101396.50;;;19.11;100.00
11856;BME280;5987;53.140;8.904;2023-07-20T14:23:23;101398.09;;;19.14;100.00
11856;BME280;5987;53.140;8.904;2023-07-20T14:26:30;101403.47;;;18.99;100.00
11856;BME280;5987;53.140;8.904;2023-07-20T14:29:35;101400.47;;;18.46;100.00
11856;BME280;5987;53.140;8.904;2023-07-20T14:32:39;101396.22;;;18.44;100.00
11856;BME280;5987;53.140;8.904;2023-07-20T14:35:42;101397.19;;;19.00;100.00
11856;BME280;5987;53.140;8.904;2023-07-20T14:38:46;101390.72;;;18.61;100.00
11856;BME280;5987;53.140;8.904;2023-07-20T14:41:51;101391.69;;;18.15;100.00
11856;BME280;5987;53.140;8.904;2023-07-20T14:44:55;101397.88;;;18.02;100.00
11856;BME280;5987;53.140;8.904;2023-07-20T14:47:59;101403.38;;;17.82;100.00
11856;BME280;5987;53.140;8.904;2023-07-20T14:51:03;101399.94;;;17.96;100.00
11856;BME280;5987;53.140;8.904;2023-07-20T14:54:07;101395.44;;;18.42;100.00
11856;BME280;5987;53.140;8.904;2023-07-20T14:57:12;101388.25;;;18.58;100.00
11856;BME280;5987;53.140;8.904;2023-07-20T15:00:18;101389.38;;;18.54;100.00
11856;BME280;5987;53.140;8.904;2023-07-20T15:03:22;101391.19;;;18.82;100.00
11856;BME280;5987;53.140;8.904;2023-07-20T15:06:25;101383.19;;;18.54;100.00
11856;BME280;5987;53.140;8.904;2023-07-20T15:09:32;101385.84;;;18.54;100.00
11856;BME280;5987;53.140;8.904;2023-07-20T15:12:37;101388.50;;;18.54;100.00
11856;BME280;5987;53.140;8.904;2023-07-20T15:15:41;101378.75;;;18.54;100.00
11856;BME280;5987;53.140;8.904;2023-07-20T15:18:45;101379.78;;;18.66;100.00
11856;BME280;5987;53.140;8.904;2023-07-20T15:21:50;101375.91;;;18.57;100.00
11856;BME280;5987;53.140;8.904;2023-07-20T15:24:53;101364.97;;;19.32;100.00
11856;BME280;5987;53.140;8.904;2023-07-20T15:27:59;101367.22;;;19.39;100.00
11856;BME280;5987;53.140;8.904;2023-07-20T15:31:04;101372.69;;;18.66;100.00
11856;BME280;5987;53.140;8.904;2023-07-20T15:34:08;101368.31;;;19.76;100.00
11856;BME280;5987;53.140;8.904;2023-07-20T15:37:15;101372.34;;;19.00;100.00
11856;BME280;5987;53.140;8.904;2023-07-20T15:40:19;101360.97;;;18.69;100.00
11856;BME280;5987;53.140;8.904;2023-07-20T15:43:24;101371.69;;;19.11;100.00
11856;BME280;5987;53.140;8.904;2023-07-20T15:46:46;101372.56;;;18.82;100.00
11856;BME280;5987;53.140;8.904;2023-07-20T15:49:51;101372.75;;;18.36;100.00
11856;BME280;5987;53.140;8.904;2023-07-20T15:52:55;101365.06;;;18.46;100.00
11856;BME280;5987;53.140;8.904;2023-07-20T15:55:59;101367.47;;;18.06;100.00
11856;BME280;5987;53.140;8.904;2023-07-20T15:59:06;101362.13;;;18.22;100.00
11856;BME280;5987;53.140;8.904;2023-07-20T16:02:10;101369.97;;;18.09;100.00
11856;BME280;5987;53.140;8.904;2023-07-20T16:05:14;101362.59;;;18.28;100.00
11856;BME280;5987;53.140;8.904;2023-07-20T16:08:18;101357.28;;;18.28;100.00
11856;BME280;5987;53.140;8.904;2023-07-20T16:11:22;101355.72;;;18.10;100.00
11856;BME280;5987;53.140;8.904;2023-07-20T16:14:30;101355.00;;;18.37;100.00